Terminal Aerodrome Forecast
Issued by NWS Huntsville, AL

Current Version | Previous Version | Text Only | Print | Product List | Glossary On
Versions: 1 2 3 4 5 6 7 8 9 10 11 12
000
FTUS44 KHUN 281120
TAFMSL
TAF
KMSL 281120Z 2812/2912 15005KT P6SM SCT050 BKN120
     FM281500 19007KT P6SM VCSH SCT050 BKN110
     FM282200 14005KT P6SM BKN050 OVC130
     FM290500 VRB03KT P6SM SCT150=

USA.gov is the U.S. government's official web portal to all federal, state and local government web resources and services.